Sendai Airport
RJSS : now visible

Airfield :











YOU CAN JOIN US ON...

 
LOGIN :

Register | Disclaimer

   EN    FR    IT 

 









Legend :    VFR   Marginal VFR   IFR   Intensive IFR   Very Intensive IFR
Visi :
Ceiling :
>= 8 km
>= 3000ft
5 to 8 km
1000 to 3000 ft
1500m to 5 km
500 to 1000 ft
800 to 1500m
200 to 500 ft
< 800m
< 200 ft
Symbols :   Thunderstorms  Fog  Heavy snow  Heavy precipitations  Wind > 20 kt






- Airport Elevation : 15 ft
- IATA code : SDJ


RJSS - Sendai

EXPIRED METARs :
  • 201200Z 00000KT 9999 FEW005 17/15 Q1012
  • 201100Z 11002KT 9999 FEW008 SCT030 BKN040 17/16 Q1011

TAF TAF RJSS
Valid from the 20 at 12:00 until the 21 at 18:00 UTC


201115Z 2012/2118 30004KT 9999 FEW020
BECMG 2100/2103 30018KT
TEMPO 2100/2106 30022G32KT
BECMG 2109/2112 32004KT
RJJJ FIR / Asia



MET'MAP, your aeronautical weather chart ! - Copyright ORBIFLY December 2007 - Disclaimer

ORBIFLY MET'MAP TEAM :

Programming & Development : Alexandra Zaïnal
Original concept : Baudouin d'Aumeries
Technical & hardware support : Manuel Goepfert
Assistance : Marc-Olivier Méhu




SOURCES & CREDITS :

   NOAA       Earth
Advisory